sensor_id;sensor_type;location;lat;lon;timestamp;P1;durP1;ratioP1;P2;durP2;ratioP2
80251;SDS011;69562;37.974;23.708;2023-04-29T00:01:08;10.97;;;6.00;;
80251;SDS011;69562;37.974;23.708;2023-04-29T00:03:33;9.57;;;5.33;;
80251;SDS011;69562;37.974;23.708;2023-04-29T00:06:00;8.18;;;5.47;;
80251;SDS011;69562;37.974;23.708;2023-04-29T00:08:25;8.48;;;5.55;;
80251;SDS011;69562;37.974;23.708;2023-04-29T00:10:52;6.70;;;5.05;;
80251;SDS011;69562;37.974;23.708;2023-04-29T00:13:18;9.90;;;5.40;;
80251;SDS011;69562;37.974;23.708;2023-04-29T00:15:44;7.32;;;5.07;;
80251;SDS011;69562;37.974;23.708;2023-04-29T00:18:09;10.43;;;5.67;;
80251;SDS011;69562;37.974;23.708;2023-04-29T00:20:35;10.27;;;5.60;;
80251;SDS011;69562;37.974;23.708;2023-04-29T00:23:02;8.02;;;5.03;;
80251;SDS011;69562;37.974;23.708;2023-04-29T00:25:28;9.10;;;5.27;;
80251;SDS011;69562;37.974;23.708;2023-04-29T00:27:54;9.52;;;5.35;;
80251;SDS011;69562;37.974;23.708;2023-04-29T00:30:23;9.35;;;5.32;;
80251;SDS011;69562;37.974;23.708;2023-04-29T00:32:49;9.23;;;5.60;;
80251;SDS011;69562;37.974;23.708;2023-04-29T00:35:15;7.80;;;5.20;;
80251;SDS011;69562;37.974;23.708;2023-04-29T00:37:41;8.07;;;4.77;;
80251;SDS011;69562;37.974;23.708;2023-04-29T00:40:07;7.28;;;5.03;;
80251;SDS011;69562;37.974;23.708;2023-04-29T00:42:33;9.13;;;5.13;;
80251;SDS011;69562;37.974;23.708;2023-04-29T00:44:59;10.80;;;4.80;;
80251;SDS011;69562;37.974;23.708;2023-04-29T00:47:25;9.63;;;5.07;;
80251;SDS011;69562;37.974;23.708;2023-04-29T00:49:50;7.77;;;4.70;;
80251;SDS011;69562;37.974;23.708;2023-04-29T00:52:16;8.67;;;4.70;;
80251;SDS011;69562;37.974;23.708;2023-04-29T00:54:43;8.90;;;4.85;;
80251;SDS011;69562;37.974;23.708;2023-04-29T00:57:09;8.43;;;5.28;;
80251;SDS011;69562;37.974;23.708;2023-04-29T00:59:35;8.40;;;5.20;;
80251;SDS011;69562;37.974;23.708;2023-04-29T01:02:02;7.63;;;4.80;;
80251;SDS011;69562;37.974;23.708;2023-04-29T01:04:28;7.18;;;5.00;;
80251;SDS011;69562;37.974;23.708;2023-04-29T01:15:25;7.85;;;5.07;;
80251;SDS011;69562;37.974;23.708;2023-04-29T01:18:03;7.28;;;5.22;;
80251;SDS011;69562;37.974;23.708;2023-04-29T01:20:34;7.18;;;4.82;;
80251;SDS011;69562;37.974;23.708;2023-04-29T01:23:01;10.13;;;5.15;;
80251;SDS011;69562;37.974;23.708;2023-04-29T01:25:27;5.97;;;4.32;;
80251;SDS011;69562;37.974;23.708;2023-04-29T01:28:01;7.90;;;4.47;;
80251;SDS011;69562;37.974;23.708;2023-04-29T01:34:14;9.27;;;4.82;;
80251;SDS011;69562;37.974;23.708;2023-04-29T01:36:56;9.60;;;5.13;;
80251;SDS011;69562;37.974;23.708;2023-04-29T01:42:18;8.77;;;4.82;;
80251;SDS011;69562;37.974;23.708;2023-04-29T01:44:56;6.28;;;4.47;;
80251;SDS011;69562;37.974;23.708;2023-04-29T01:47:27;8.95;;;5.18;;
80251;SDS011;69562;37.974;23.708;2023-04-29T01:49:54;7.80;;;4.90;;
80251;SDS011;69562;37.974;23.708;2023-04-29T01:52:19;10.93;;;5.57;;
80251;SDS011;69562;37.974;23.708;2023-04-29T01:54:46;8.82;;;5.38;;
80251;SDS011;69562;37.974;23.708;2023-04-29T01:57:12;7.27;;;4.87;;
80251;SDS011;69562;37.974;23.708;2023-04-29T01:59:38;9.17;;;5.13;;
80251;SDS011;69562;37.974;23.708;2023-04-29T02:02:04;8.40;;;4.95;;
80251;SDS011;69562;37.974;23.708;2023-04-29T02:04:29;7.40;;;5.33;;
80251;SDS011;69562;37.974;23.708;2023-04-29T02:06:57;8.85;;;5.10;;
80251;SDS011;69562;37.974;23.708;2023-04-29T02:09:23;8.98;;;5.15;;
80251;SDS011;69562;37.974;23.708;2023-04-29T02:11:49;8.97;;;5.40;;
80251;SDS011;69562;37.974;23.708;2023-04-29T02:14:14;8.27;;;5.30;;
80251;SDS011;69562;37.974;23.708;2023-04-29T02:16:42;8.10;;;5.10;;
80251;SDS011;69562;37.974;23.708;2023-04-29T02:19:09;7.22;;;5.30;;
80251;SDS011;69562;37.974;23.708;2023-04-29T02:21:35;9.02;;;5.28;;
80251;SDS011;69562;37.974;23.708;2023-04-29T02:24:01;8.20;;;5.17;;
80251;SDS011;69562;37.974;23.708;2023-04-29T02:26:27;8.43;;;5.43;;
80251;SDS011;69562;37.974;23.708;2023-04-29T02:28:52;8.00;;;5.50;;
80251;SDS011;69562;37.974;23.708;2023-04-29T02:31:18;8.75;;;5.00;;
80251;SDS011;69562;37.974;23.708;2023-04-29T02:33:44;9.83;;;5.37;;
80251;SDS011;69562;37.974;23.708;2023-04-29T02:36:10;7.27;;;4.93;;
80251;SDS011;69562;37.974;23.708;2023-04-29T02:38:35;9.17;;;5.37;;
80251;SDS011;69562;37.974;23.708;2023-04-29T02:41:01;10.02;;;5.68;;
80251;SDS011;69562;37.974;23.708;2023-04-29T02:43:27;8.03;;;5.03;;
80251;SDS011;69562;37.974;23.708;2023-04-29T02:45:55;7.10;;;4.60;;
80251;SDS011;69562;37.974;23.708;2023-04-29T02:48:21;7.32;;;5.00;;
80251;SDS011;69562;37.974;23.708;2023-04-29T02:50:46;9.40;;;5.27;;
80251;SDS011;69562;37.974;23.708;2023-04-29T02:53:13;7.57;;;4.93;;
80251;SDS011;69562;37.974;23.708;2023-04-29T02:55:38;7.97;;;5.07;;
80251;SDS011;69562;37.974;23.708;2023-04-29T02:58:04;9.23;;;4.77;;
80251;SDS011;69562;37.974;23.708;2023-04-29T03:00:30;7.83;;;5.47;;
80251;SDS011;69562;37.974;23.708;2023-04-29T03:02:55;7.40;;;5.10;;
80251;SDS011;69562;37.974;23.708;2023-04-29T03:05:21;8.20;;;5.20;;
80251;SDS011;69562;37.974;23.708;2023-04-29T03:07:47;10.10;;;4.90;;
80251;SDS011;69562;37.974;23.708;2023-04-29T03:10:12;9.93;;;5.03;;
80251;SDS011;69562;37.974;23.708;2023-04-29T03:12:38;8.10;;;4.90;;
80251;SDS011;69562;37.974;23.708;2023-04-29T03:15:05;8.13;;;4.87;;
80251;SDS011;69562;37.974;23.708;2023-04-29T03:17:32;10.45;;;4.95;;
80251;SDS011;69562;37.974;23.708;2023-04-29T03:19:58;9.10;;;4.93;;
80251;SDS011;69562;37.974;23.708;2023-04-29T03:22:24;8.33;;;4.90;;
80251;SDS011;69562;37.974;23.708;2023-04-29T03:24:50;7.72;;;5.25;;
80251;SDS011;69562;37.974;23.708;2023-04-29T03:27:16;6.63;;;4.63;;
80251;SDS011;69562;37.974;23.708;2023-04-29T03:29:42;9.03;;;5.27;;
80251;SDS011;69562;37.974;23.708;2023-04-29T03:32:07;11.50;;;5.63;;
80251;SDS011;69562;37.974;23.708;2023-04-29T03:34:33;8.20;;;4.80;;
80251;SDS011;69562;37.974;23.708;2023-04-29T03:36:59;10.13;;;5.20;;
80251;SDS011;69562;37.974;23.708;2023-04-29T03:39:25;10.02;;;4.78;;
80251;SDS011;69562;37.974;23.708;2023-04-29T03:41:55;6.70;;;4.80;;
80251;SDS011;69562;37.974;23.708;2023-04-29T03:44:21;9.50;;;4.90;;
80251;SDS011;69562;37.974;23.708;2023-04-29T03:46:47;9.40;;;5.07;;
80251;SDS011;69562;37.974;23.708;2023-04-29T03:49:12;8.83;;;5.00;;
80251;SDS011;69562;37.974;23.708;2023-04-29T03:51:38;7.53;;;4.97;;
80251;SDS011;69562;37.974;23.708;2023-04-29T03:54:04;9.85;;;4.90;;
80251;SDS011;69562;37.974;23.708;2023-04-29T03:56:30;7.13;;;4.85;;
80251;SDS011;69562;37.974;23.708;2023-04-29T03:58:56;7.43;;;4.90;;
80251;SDS011;69562;37.974;23.708;2023-04-29T04:01:21;8.77;;;4.73;;
80251;SDS011;69562;37.974;23.708;2023-04-29T04:03:47;10.53;;;5.00;;
80251;SDS011;69562;37.974;23.708;2023-04-29T04:06:13;8.73;;;5.00;;
80251;SDS011;69562;37.974;23.708;2023-04-29T04:08:39;10.77;;;5.43;;
80251;SDS011;69562;37.974;23.708;2023-04-29T04:11:05;7.40;;;4.88;;
80251;SDS011;69562;37.974;23.708;2023-04-29T04:13:31;7.97;;;5.40;;
80251;SDS011;69562;37.974;23.708;2023-04-29T04:15:57;8.15;;;5.18;;
80251;SDS011;69562;37.974;23.708;2023-04-29T04:18:22;7.50;;;4.87;;
80251;SDS011;69562;37.974;23.708;2023-04-29T04:20:48;9.27;;;5.35;;
80251;SDS011;69562;37.974;23.708;2023-04-29T04:23:14;8.47;;;5.30;;
80251;SDS011;69562;37.974;23.708;2023-04-29T04:25:44;11.00;;;5.47;;
80251;SDS011;69562;37.974;23.708;2023-04-29T04:28:10;12.80;;;5.88;;
80251;SDS011;69562;37.974;23.708;2023-04-29T04:30:36;10.10;;;5.73;;
80251;SDS011;69562;37.974;23.708;2023-04-29T04:33:02;11.07;;;5.70;;
80251;SDS011;69562;37.974;23.708;2023-04-29T04:35:28;8.52;;;5.18;;
80251;SDS011;69562;37.974;23.708;2023-04-29T04:37:53;8.33;;;5.13;;
80251;SDS011;69562;37.974;23.708;2023-04-29T04:40:19;9.47;;;5.33;;
80251;SDS011;69562;37.974;23.708;2023-04-29T04:42:45;8.80;;;5.65;;
80251;SDS011;69562;37.974;23.708;2023-04-29T04:45:11;10.80;;;5.70;;
80251;SDS011;69562;37.974;23.708;2023-04-29T04:47:38;8.30;;;5.20;;
80251;SDS011;69562;37.974;23.708;2023-04-29T04:50:05;9.07;;;5.47;;
80251;SDS011;69562;37.974;23.708;2023-04-29T04:52:32;11.38;;;5.75;;
80251;SDS011;69562;37.974;23.708;2023-04-29T04:54:58;8.85;;;6.18;;
80251;SDS011;69562;37.974;23.708;2023-04-29T04:57:23;12.00;;;5.87;;
80251;SDS011;69562;37.974;23.708;2023-04-29T04:59:49;9.02;;;5.60;;
80251;SDS011;69562;37.974;23.708;2023-04-29T05:02:15;11.17;;;5.70;;
80251;SDS011;69562;37.974;23.708;2023-04-29T05:04:41;9.03;;;5.60;;
80251;SDS011;69562;37.974;23.708;2023-04-29T05:07:06;11.20;;;5.60;;
80251;SDS011;69562;37.974;23.708;2023-04-29T05:09:33;10.57;;;6.20;;
80251;SDS011;69562;37.974;23.708;2023-04-29T05:11:58;13.37;;;6.37;;
80251;SDS011;69562;37.974;23.708;2023-04-29T05:14:24;11.00;;;6.67;;
80251;SDS011;69562;37.974;23.708;2023-04-29T05:16:50;10.15;;;6.30;;
80251;SDS011;69562;37.974;23.708;2023-04-29T05:19:17;11.38;;;6.82;;
80251;SDS011;69562;37.974;23.708;2023-04-29T05:21:43;8.98;;;6.65;;
80251;SDS011;69562;37.974;23.708;2023-04-29T05:24:09;11.85;;;6.20;;
80251;SDS011;69562;37.974;23.708;2023-04-29T05:26:35;10.83;;;7.00;;
80251;SDS011;69562;37.974;23.708;2023-04-29T05:29:00;9.70;;;6.17;;
80251;SDS011;69562;37.974;23.708;2023-04-29T05:31:26;15.30;;;6.30;;
80251;SDS011;69562;37.974;23.708;2023-04-29T05:33:52;9.98;;;6.40;;
80251;SDS011;69562;37.974;23.708;2023-04-29T05:36:18;13.35;;;6.60;;
80251;SDS011;69562;37.974;23.708;2023-04-29T05:38:44;11.77;;;6.20;;
80251;SDS011;69562;37.974;23.708;2023-04-29T05:41:10;10.03;;;6.40;;
80251;SDS011;69562;37.974;23.708;2023-04-29T05:43:38;11.93;;;6.60;;
80251;SDS011;69562;37.974;23.708;2023-04-29T05:46:03;10.98;;;6.00;;
80251;SDS011;69562;37.974;23.708;2023-04-29T05:48:30;8.65;;;6.10;;
80251;SDS011;69562;37.974;23.708;2023-04-29T05:50:55;11.13;;;6.00;;
80251;SDS011;69562;37.974;23.708;2023-04-29T05:53:21;10.38;;;5.90;;
80251;SDS011;69562;37.974;23.708;2023-04-29T05:55:47;10.80;;;5.83;;
80251;SDS011;69562;37.974;23.708;2023-04-29T05:58:14;8.15;;;5.50;;
80251;SDS011;69562;37.974;23.708;2023-04-29T06:00:41;9.40;;;5.22;;
80251;SDS011;69562;37.974;23.708;2023-04-29T06:03:08;12.10;;;5.28;;
80251;SDS011;69562;37.974;23.708;2023-04-29T06:05:34;7.88;;;5.13;;
80251;SDS011;69562;37.974;23.708;2023-04-29T06:08:01;7.25;;;4.47;;
80251;SDS011;69562;37.974;23.708;2023-04-29T06:10:28;6.78;;;4.40;;
80251;SDS011;69562;37.974;23.708;2023-04-29T06:12:54;9.63;;;4.63;;
80251;SDS011;69562;37.974;23.708;2023-04-29T06:15:19;9.60;;;4.47;;
80251;SDS011;69562;37.974;23.708;2023-04-29T06:17:46;7.50;;;4.70;;
80251;SDS011;69562;37.974;23.708;2023-04-29T06:22:38;7.45;;;4.50;;
80251;SDS011;69562;37.974;23.708;2023-04-29T06:25:04;9.40;;;4.40;;
80251;SDS011;69562;37.974;23.708;2023-04-29T06:27:30;9.32;;;4.43;;
80251;SDS011;69562;37.974;23.708;2023-04-29T06:29:56;8.50;;;4.43;;
80251;SDS011;69562;37.974;23.708;2023-04-29T06:32:22;5.83;;;4.17;;
80251;SDS011;69562;37.974;23.708;2023-04-29T06:34:47;6.17;;;3.87;;
80251;SDS011;69562;37.974;23.708;2023-04-29T06:37:14;7.55;;;4.40;;
80251;SDS011;69562;37.974;23.708;2023-04-29T06:39:39;5.90;;;4.20;;
80251;SDS011;69562;37.974;23.708;2023-04-29T06:42:05;6.47;;;4.40;;
80251;SDS011;69562;37.974;23.708;2023-04-29T06:44:31;6.78;;;4.65;;
80251;SDS011;69562;37.974;23.708;2023-04-29T06:46:57;6.60;;;4.20;;
80251;SDS011;69562;37.974;23.708;2023-04-29T06:49:22;7.00;;;4.57;;
80251;SDS011;69562;37.974;23.708;2023-04-29T06:51:48;7.97;;;4.87;;
80251;SDS011;69562;37.974;23.708;2023-04-29T06:54:14;8.03;;;4.43;;
80251;SDS011;69562;37.974;23.708;2023-04-29T06:56:40;6.82;;;4.32;;
80251;SDS011;69562;37.974;23.708;2023-04-29T06:59:05;6.00;;;4.00;;
80251;SDS011;69562;37.974;23.708;2023-04-29T07:01:31;8.60;;;4.65;;
80251;SDS011;69562;37.974;23.708;2023-04-29T07:03:57;8.97;;;4.57;;
80251;SDS011;69562;37.974;23.708;2023-04-29T07:06:25;11.17;;;4.37;;
80251;SDS011;69562;37.974;23.708;2023-04-29T07:08:51;6.07;;;4.13;;
80251;SDS011;69562;37.974;23.708;2023-04-29T07:11:17;6.50;;;4.17;;
80251;SDS011;69562;37.974;23.708;2023-04-29T07:13:43;5.85;;;4.03;;
80251;SDS011;69562;37.974;23.708;2023-04-29T07:16:15;5.50;;;3.70;;
80251;SDS011;69562;37.974;23.708;2023-04-29T07:18:46;6.80;;;4.07;;
80251;SDS011;69562;37.974;23.708;2023-04-29T07:23:37;6.53;;;4.30;;
80251;SDS011;69562;37.974;23.708;2023-04-29T07:26:13;6.77;;;4.30;;
80251;SDS011;69562;37.974;23.708;2023-04-29T07:28:40;5.72;;;3.97;;
80251;SDS011;69562;37.974;23.708;2023-04-29T07:31:06;7.00;;;3.90;;
80251;SDS011;69562;37.974;23.708;2023-04-29T07:33:33;6.03;;;4.10;;
80251;SDS011;69562;37.974;23.708;2023-04-29T07:35:59;5.90;;;3.88;;
80251;SDS011;69562;37.974;23.708;2023-04-29T07:38:25;5.43;;;3.80;;
80251;SDS011;69562;37.974;23.708;2023-04-29T07:40:51;4.70;;;3.77;;
80251;SDS011;69562;37.974;23.708;2023-04-29T07:43:16;7.18;;;4.10;;
80251;SDS011;69562;37.974;23.708;2023-04-29T07:45:42;5.17;;;3.77;;
80251;SDS011;69562;37.974;23.708;2023-04-29T07:48:08;6.83;;;4.17;;
80251;SDS011;69562;37.974;23.708;2023-04-29T07:50:34;5.40;;;3.63;;
80251;SDS011;69562;37.974;23.708;2023-04-29T07:53:02;5.28;;;4.00;;
80251;SDS011;69562;37.974;23.708;2023-04-29T07:55:28;4.18;;;3.63;;
80251;SDS011;69562;37.974;23.708;2023-04-29T07:57:55;5.40;;;3.33;;
80251;SDS011;69562;37.974;23.708;2023-04-29T08:00:21;6.38;;;3.83;;
80251;SDS011;69562;37.974;23.708;2023-04-29T08:02:53;5.18;;;3.53;;
80251;SDS011;69562;37.974;23.708;2023-04-29T08:05:19;5.95;;;3.90;;
80251;SDS011;69562;37.974;23.708;2023-04-29T08:10:12;6.40;;;3.63;;
80251;SDS011;69562;37.974;23.708;2023-04-29T08:12:39;5.03;;;3.88;;
80251;SDS011;69562;37.974;23.708;2023-04-29T08:15:05;4.55;;;3.45;;
80251;SDS011;69562;37.974;23.708;2023-04-29T08:17:31;5.68;;;3.60;;
80251;SDS011;69562;37.974;23.708;2023-04-29T08:19:57;5.03;;;3.60;;
80251;SDS011;69562;37.974;23.708;2023-04-29T08:22:22;4.93;;;3.57;;
80251;SDS011;69562;37.974;23.708;2023-04-29T08:24:48;3.70;;;3.30;;
80251;SDS011;69562;37.974;23.708;2023-04-29T08:27:14;6.13;;;3.60;;
80251;SDS011;69562;37.974;23.708;2023-04-29T08:29:40;5.53;;;3.78;;
80251;SDS011;69562;37.974;23.708;2023-04-29T08:32:07;5.07;;;3.53;;
80251;SDS011;69562;37.974;23.708;2023-04-29T08:34:33;5.10;;;3.85;;
80251;SDS011;69562;37.974;23.708;2023-04-29T08:37:00;5.40;;;3.75;;
80251;SDS011;69562;37.974;23.708;2023-04-29T08:39:29;4.22;;;3.42;;
80251;SDS011;69562;37.974;23.708;2023-04-29T08:41:58;4.78;;;3.60;;
80251;SDS011;69562;37.974;23.708;2023-04-29T08:44:27;6.13;;;3.92;;
80251;SDS011;69562;37.974;23.708;2023-04-29T08:46:54;4.25;;;3.42;;
80251;SDS011;69562;37.974;23.708;2023-04-29T08:49:21;5.07;;;3.42;;
80251;SDS011;69562;37.974;23.708;2023-04-29T08:51:47;4.75;;;3.38;;
80251;SDS011;69562;37.974;23.708;2023-04-29T08:54:15;4.63;;;3.70;;
80251;SDS011;69562;37.974;23.708;2023-04-29T08:56:43;5.82;;;3.58;;
80251;SDS011;69562;37.974;23.708;2023-04-29T08:59:10;4.97;;;3.55;;
80251;SDS011;69562;37.974;23.708;2023-04-29T09:01:41;5.55;;;3.85;;
80251;SDS011;69562;37.974;23.708;2023-04-29T09:04:08;6.10;;;3.72;;
80251;SDS011;69562;37.974;23.708;2023-04-29T09:06:43;6.30;;;3.70;;
80251;SDS011;69562;37.974;23.708;2023-04-29T09:09:10;5.10;;;3.50;;
80251;SDS011;69562;37.974;23.708;2023-04-29T09:11:38;4.90;;;3.53;;
80251;SDS011;69562;37.974;23.708;2023-04-29T09:14:04;5.20;;;3.60;;
80251;SDS011;69562;37.974;23.708;2023-04-29T09:16:30;4.30;;;3.63;;
80251;SDS011;69562;37.974;23.708;2023-04-29T09:18:55;5.23;;;3.70;;
80251;SDS011;69562;37.974;23.708;2023-04-29T09:21:25;4.37;;;3.50;;
80251;SDS011;69562;37.974;23.708;2023-04-29T09:23:53;5.18;;;3.47;;
80251;SDS011;69562;37.974;23.708;2023-04-29T09:26:20;5.38;;;3.38;;
80251;SDS011;69562;37.974;23.708;2023-04-29T09:28:47;4.15;;;3.47;;
80251;SDS011;69562;37.974;23.708;2023-04-29T09:31:48;5.13;;;3.45;;
80251;SDS011;69562;37.974;23.708;2023-04-29T09:34:14;4.28;;;3.40;;
80251;SDS011;69562;37.974;23.708;2023-04-29T09:44:18;5.43;;;3.47;;
80251;SDS011;69562;37.974;23.708;2023-04-29T09:49:36;5.85;;;3.47;;
80251;SDS011;69562;37.974;23.708;2023-04-29T09:54:32;8.05;;;3.78;;
80251;SDS011;69562;37.974;23.708;2023-04-29T09:57:00;6.30;;;3.70;;
80251;SDS011;69562;37.974;23.708;2023-04-29T09:59:30;4.93;;;3.60;;
80251;SDS011;69562;37.974;23.708;2023-04-29T10:01:57;5.03;;;3.63;;
80251;SDS011;69562;37.974;23.708;2023-04-29T10:04:23;4.68;;;3.63;;
80251;SDS011;69562;37.974;23.708;2023-04-29T10:06:54;4.97;;;3.70;;
80251;SDS011;69562;37.974;23.708;2023-04-29T10:09:21;5.45;;;3.60;;
80251;SDS011;69562;37.974;23.708;2023-04-29T10:11:51;4.78;;;3.53;;
80251;SDS011;69562;37.974;23.708;2023-04-29T10:14:18;4.45;;;3.67;;
80251;SDS011;69562;37.974;23.708;2023-04-29T10:16:49;6.25;;;3.83;;
80251;SDS011;69562;37.974;23.708;2023-04-29T10:19:24;5.03;;;3.38;;
80251;SDS011;69562;37.974;23.708;2023-04-29T10:21:56;5.50;;;3.50;;
80251;SDS011;69562;37.974;23.708;2023-04-29T10:24:24;3.90;;;3.50;;
80251;SDS011;69562;37.974;23.708;2023-04-29T10:26:51;3.60;;;3.30;;
80251;SDS011;69562;37.974;23.708;2023-04-29T10:29:20;4.63;;;3.72;;
80251;SDS011;69562;37.974;23.708;2023-04-29T10:31:47;4.28;;;3.33;;
80251;SDS011;69562;37.974;23.708;2023-04-29T10:34:15;5.45;;;3.60;;
80251;SDS011;69562;37.974;23.708;2023-04-29T10:36:41;4.32;;;3.67;;
80251;SDS011;69562;37.974;23.708;2023-04-29T10:39:08;4.65;;;3.45;;
80251;SDS011;69562;37.974;23.708;2023-04-29T10:41:43;6.05;;;3.60;;
80251;SDS011;69562;37.974;23.708;2023-04-29T10:44:13;4.95;;;3.42;;
80251;SDS011;69562;37.974;23.708;2023-04-29T10:46:39;4.17;;;3.57;;
80251;SDS011;69562;37.974;23.708;2023-04-29T10:49:05;4.33;;;3.70;;
80251;SDS011;69562;37.974;23.708;2023-04-29T10:51:32;5.43;;;3.58;;
80251;SDS011;69562;37.974;23.708;2023-04-29T10:54:06;4.60;;;3.58;;
80251;SDS011;69562;37.974;23.708;2023-04-29T10:56:36;4.43;;;3.50;;
80251;SDS011;69562;37.974;23.708;2023-04-29T10:59:08;6.28;;;3.78;;
80251;SDS011;69562;37.974;23.708;2023-04-29T11:01:46;5.13;;;3.70;;
80251;SDS011;69562;37.974;23.708;2023-04-29T11:04:12;6.97;;;3.50;;
80251;SDS011;69562;37.974;23.708;2023-04-29T11:09:09;4.50;;;3.53;;
80251;SDS011;69562;37.974;23.708;2023-04-29T11:12:20;4.53;;;3.55;;
80251;SDS011;69562;37.974;23.708;2023-04-29T11:16:55;5.70;;;3.63;;
80251;SDS011;69562;37.974;23.708;2023-04-29T11:24:51;4.00;;;3.60;;
80251;SDS011;69562;37.974;23.708;2023-04-29T11:27:21;4.80;;;3.80;;
80251;SDS011;69562;37.974;23.708;2023-04-29T11:29:50;4.47;;;3.17;;
80251;SDS011;69562;37.974;23.708;2023-04-29T11:32:20;4.55;;;3.78;;
80251;SDS011;69562;37.974;23.708;2023-04-29T11:34:47;4.72;;;3.50;;
80251;SDS011;69562;37.974;23.708;2023-04-29T11:37:17;4.47;;;3.38;;
80251;SDS011;69562;37.974;23.708;2023-04-29T11:39:47;5.30;;;3.70;;
80251;SDS011;69562;37.974;23.708;2023-04-29T11:42:17;5.40;;;3.58;;
80251;SDS011;69562;37.974;23.708;2023-04-29T11:44:44;4.10;;;3.30;;
80251;SDS011;69562;37.974;23.708;2023-04-29T11:47:10;4.43;;;3.55;;
80251;SDS011;69562;37.974;23.708;2023-04-29T11:49:36;4.75;;;3.65;;
80251;SDS011;69562;37.974;23.708;2023-04-29T11:52:02;3.88;;;3.45;;
80251;SDS011;69562;37.974;23.708;2023-04-29T11:54:29;3.97;;;3.30;;
80251;SDS011;69562;37.974;23.708;2023-04-29T11:56:55;4.88;;;3.38;;
80251;SDS011;69562;37.974;23.708;2023-04-29T11:59:22;4.57;;;3.50;;
80251;SDS011;69562;37.974;23.708;2023-04-29T12:01:48;4.88;;;3.72;;
80251;SDS011;69562;37.974;23.708;2023-04-29T12:04:15;4.38;;;3.47;;
80251;SDS011;69562;37.974;23.708;2023-04-29T12:09:07;4.28;;;3.35;;
80251;SDS011;69562;37.974;23.708;2023-04-29T12:11:33;4.60;;;3.70;;
80251;SDS011;69562;37.974;23.708;2023-04-29T12:14:00;5.47;;;3.42;;
80251;SDS011;69562;37.974;23.708;2023-04-29T12:16:30;5.03;;;3.70;;
80251;SDS011;69562;37.974;23.708;2023-04-29T12:18:56;4.68;;;3.60;;
80251;SDS011;69562;37.974;23.708;2023-04-29T12:21:23;5.13;;;3.78;;
80251;SDS011;69562;37.974;23.708;2023-04-29T12:23:50;4.25;;;3.50;;
80251;SDS011;69562;37.974;23.708;2023-04-29T12:26:17;7.45;;;3.85;;
80251;SDS011;69562;37.974;23.708;2023-04-29T12:28:44;4.38;;;3.60;;
80251;SDS011;69562;37.974;23.708;2023-04-29T12:31:13;4.43;;;3.55;;
80251;SDS011;69562;37.974;23.708;2023-04-29T12:33:41;5.00;;;3.63;;
80251;SDS011;69562;37.974;23.708;2023-04-29T12:36:16;4.93;;;3.78;;
80251;SDS011;69562;37.974;23.708;2023-04-29T12:38:43;5.53;;;3.97;;
80251;SDS011;69562;37.974;23.708;2023-04-29T12:41:09;5.60;;;3.53;;
80251;SDS011;69562;37.974;23.708;2023-04-29T12:43:37;4.45;;;3.60;;
80251;SDS011;69562;37.974;23.708;2023-04-29T12:46:03;5.20;;;3.87;;
80251;SDS011;69562;37.974;23.708;2023-04-29T12:48:35;5.07;;;3.45;;
80251;SDS011;69562;37.974;23.708;2023-04-29T12:51:10;3.97;;;3.58;;
80251;SDS011;69562;37.974;23.708;2023-04-29T12:53:36;4.05;;;3.65;;
80251;SDS011;69562;37.974;23.708;2023-04-29T12:56:02;6.10;;;3.78;;
80251;SDS011;69562;37.974;23.708;2023-04-29T12:58:28;5.25;;;3.70;;
80251;SDS011;69562;37.974;23.708;2023-04-29T13:00:58;5.07;;;3.90;;
80251;SDS011;69562;37.974;23.708;2023-04-29T13:03:23;4.77;;;3.73;;
80251;SDS011;69562;37.974;23.708;2023-04-29T13:05:49;5.30;;;3.90;;
80251;SDS011;69562;37.974;23.708;2023-04-29T13:08:17;5.22;;;3.70;;
80251;SDS011;69562;37.974;23.708;2023-04-29T13:10:43;4.13;;;3.70;;
80251;SDS011;69562;37.974;23.708;2023-04-29T13:13:09;4.70;;;4.00;;
80251;SDS011;69562;37.974;23.708;2023-04-29T13:15:35;4.27;;;3.67;;
80251;SDS011;69562;37.974;23.708;2023-04-29T13:18:03;5.20;;;3.70;;
80251;SDS011;69562;37.974;23.708;2023-04-29T13:20:29;4.47;;;3.70;;
80251;SDS011;69562;37.974;23.708;2023-04-29T13:22:56;6.13;;;3.83;;
80251;SDS011;69562;37.974;23.708;2023-04-29T13:25:22;4.90;;;3.63;;
80251;SDS011;69562;37.974;23.708;2023-04-29T13:27:47;5.53;;;3.80;;
80251;SDS011;69562;37.974;23.708;2023-04-29T13:30:13;6.03;;;3.60;;
80251;SDS011;69562;37.974;23.708;2023-04-29T13:32:40;5.35;;;3.75;;
80251;SDS011;69562;37.974;23.708;2023-04-29T13:35:06;5.85;;;3.95;;
80251;SDS011;69562;37.974;23.708;2023-04-29T13:37:32;3.88;;;3.55;;
80251;SDS011;69562;37.974;23.708;2023-04-29T13:39:58;5.70;;;4.00;;
80251;SDS011;69562;37.974;23.708;2023-04-29T13:42:24;5.97;;;3.75;;
80251;SDS011;69562;37.974;23.708;2023-04-29T13:44:50;4.72;;;3.40;;
80251;SDS011;69562;37.974;23.708;2023-04-29T13:47:17;4.75;;;3.70;;
80251;SDS011;69562;37.974;23.708;2023-04-29T13:49:43;4.03;;;3.65;;
80251;SDS011;69562;37.974;23.708;2023-04-29T13:52:09;4.40;;;3.60;;
80251;SDS011;69562;37.974;23.708;2023-04-29T13:54:36;5.55;;;3.75;;
80251;SDS011;69562;37.974;23.708;2023-04-29T13:57:01;4.00;;;3.60;;
80251;SDS011;69562;37.974;23.708;2023-04-29T13:59:28;5.65;;;3.72;;
80251;SDS011;69562;37.974;23.708;2023-04-29T14:01:55;3.97;;;3.50;;
80251;SDS011;69562;37.974;23.708;2023-04-29T14:04:21;4.88;;;3.50;;
80251;SDS011;69562;37.974;23.708;2023-04-29T14:06:47;5.30;;;3.65;;
80251;SDS011;69562;37.974;23.708;2023-04-29T14:09:13;5.20;;;3.63;;
80251;SDS011;69562;37.974;23.708;2023-04-29T14:11:39;4.87;;;3.73;;
80251;SDS011;69562;37.974;23.708;2023-04-29T14:14:04;4.77;;;3.77;;
80251;SDS011;69562;37.974;23.708;2023-04-29T14:16:30;3.90;;;3.27;;
80251;SDS011;69562;37.974;23.708;2023-04-29T14:18:56;4.07;;;3.43;;
80251;SDS011;69562;37.974;23.708;2023-04-29T14:21:21;3.50;;;3.20;;
80251;SDS011;69562;37.974;23.708;2023-04-29T14:23:48;3.83;;;3.30;;
80251;SDS011;69562;37.974;23.708;2023-04-29T14:26:14;4.07;;;3.38;;
80251;SDS011;69562;37.974;23.708;2023-04-29T14:28:40;5.40;;;3.35;;
80251;SDS011;69562;37.974;23.708;2023-04-29T14:31:05;4.43;;;3.40;;
80251;SDS011;69562;37.974;23.708;2023-04-29T14:33:31;4.60;;;3.37;;
80251;SDS011;69562;37.974;23.708;2023-04-29T14:35:57;4.30;;;3.50;;
80251;SDS011;69562;37.974;23.708;2023-04-29T14:38:24;4.45;;;3.45;;
80251;SDS011;69562;37.974;23.708;2023-04-29T14:40:50;5.88;;;3.45;;
80251;SDS011;69562;37.974;23.708;2023-04-29T14:43:16;5.50;;;3.38;;
80251;SDS011;69562;37.974;23.708;2023-04-29T14:45:42;4.40;;;3.58;;
80251;SDS011;69562;37.974;23.708;2023-04-29T14:48:09;4.60;;;3.38;;
80251;SDS011;69562;37.974;23.708;2023-04-29T14:50:35;3.75;;;3.28;;
80251;SDS011;69562;37.974;23.708;2023-04-29T14:53:01;3.70;;;3.40;;
80251;SDS011;69562;37.974;23.708;2023-04-29T14:55:27;4.47;;;3.80;;
80251;SDS011;69562;37.974;23.708;2023-04-29T14:57:53;4.90;;;3.50;;
80251;SDS011;69562;37.974;23.708;2023-04-29T15:00:18;4.20;;;3.23;;
80251;SDS011;69562;37.974;23.708;2023-04-29T15:02:45;5.55;;;3.28;;
80251;SDS011;69562;37.974;23.708;2023-04-29T15:05:11;6.50;;;3.47;;
80251;SDS011;69562;37.974;23.708;2023-04-29T15:07:36;4.20;;;3.47;;
80251;SDS011;69562;37.974;23.708;2023-04-29T15:10:02;4.38;;;3.67;;
80251;SDS011;69562;37.974;23.708;2023-04-29T15:12:30;3.88;;;3.28;;
80251;SDS011;69562;37.974;23.708;2023-04-29T15:14:56;4.38;;;3.30;;
80251;SDS011;69562;37.974;23.708;2023-04-29T15:17:22;5.47;;;3.87;;
80251;SDS011;69562;37.974;23.708;2023-04-29T15:19:48;6.37;;;3.67;;